Kezdőlap
METAR-TAF:

METAR-TAF

Repülőterek :

Fillmore County Airport

Preston, Minnesota, Amerikai Egyesült Államok

földrajzi szélesség: 43-40-36N, földrajzi hosszúság: 092-10-47W, magasság: 389 m

Jelenlegi meteorológiai megfigyelések

A jelentés 4 órával és 31 perccel ezelõtt készült, 13:02 UTC
Nyugat-északnyugati szél 5 kt
Hőmérséklet 20°C
Páratartalom 78%
Légköri nyomás 1012 hPa
Látótávolság: 11.3 km
Derült ég

METAR: KFKA 181302Z AUTO 30005KT 7SM CLR 20/16 A2988 RMK

Idő: 12:33 (17:33 UTC)


TAF: hiányzik

Meteorológiai megfigyelések és előrejelzések több, mint 4000 repülőtéren (METAR és TAF jelentéseket).

A térképen piros és sárga pontok jelzik az elérhető meteorológiai állomásokat.

Mozgassa az egeret a pont fölött, hogy megjelenjen az állomás neve.

Azután kattintson az időjárási megfigyelések és előrejelzések megtekintéséhez.

A térkép megváltoztatása: kattintson a fekete keresztel jelölt zöld gombra ráközelítéshez, a vonallal jelölt zöld gombra távolításhoz, vagy a zöld nyilakra a szomszédos térképek eléréséhez.


METAR-TAF: